Time,TemperatureF,DewpointF,PressureIn,WindDirection,WindDirectionDegrees,WindSpeedMPH,WindSpeedGustMPH,Humidity,HourlyPrecipIn,Conditions,Clouds,dailyrainin,SoftwareType,DateUTC
2013-05-19 00:01:00,58.5,58.5,26.85,ENE,61,0.0,0.0,100,0.08,,,-99.99,VWS V12.07,2013-05-19 04:01:00,
2013-05-19 00:31:00,58.5,58.5,26.84,ENE,61,0.0,0.0,100,0.02,,,-99.99,VWS V12.07,2013-05-19 04:31:00,
2013-05-19 01:01:00,58.7,58.7,26.84,ENE,61,0.0,0.0,100,0.01,,,-99.99,VWS V12.07,2013-05-19 05:01:00,
2013-05-19 01:31:00,58.6,58.6,26.83,ENE,61,0.0,0.0,100,0.01,,,-99.99,VWS V12.07,2013-05-19 05:31:00,
2013-05-19 02:01:00,58.6,58.6,26.83,ENE,61,0.0,0.0,100,0.01,,,-99.99,VWS V12.07,2013-05-19 06:01:00,
2013-05-19 02:31:00,59.1,59.1,26.83,ESE,104,0.0,0.0,100,0.00,,,-99.99,VWS V12.07,2013-05-19 06:31:00,
2013-05-19 03:01:00,58.9,58.9,26.82,East,94,4.0,6.0,100,0.01,,,-99.99,VWS V12.07,2013-05-19 07:01:00,
2013-05-19 03:31:00,59.1,59.1,26.83,ESE,109,4.0,8.0,100,0.02,,,-99.99,VWS V12.07,2013-05-19 07:31:00,
2013-05-19 04:02:00,59.1,59.1,26.83,ESE,108,0.0,5.0,100,0.02,,,-99.99,VWS V12.07,2013-05-19 08:02:00,
2013-05-19 04:31:00,59.1,59.1,26.83,ESE,115,1.0,5.0,100,0.02,,,-99.99,VWS V12.07,2013-05-19 08:31:00,
2013-05-19 05:01:00,59.1,59.1,26.84,East,80,0.0,2.0,100,0.01,,,-99.99,VWS V12.07,2013-05-19 09:01:00,
2013-05-19 05:32:00,58.9,58.9,26.84,East,91,4.0,6.0,100,0.00,,,-99.99,VWS V12.07,2013-05-19 09:32:00,
2013-05-19 06:01:00,58.8,58.8,26.85,East,94,1.0,1.0,100,0.00,,,-99.99,VWS V12.07,2013-05-19 10:01:00,
2013-05-19 06:31:00,59.0,59.0,26.85,East,97,2.0,4.0,100,0.00,,,-99.99,VWS V12.07,2013-05-19 10:31:00,
2013-05-19 07:01:00,58.9,58.9,26.86,ESE,117,2.0,4.0,100,0.01,,,-99.99,VWS V12.07,2013-05-19 11:01:00,
2013-05-19 07:31:00,59.2,59.2,26.86,SE,143,0.0,4.0,100,0.01,,,-99.99,VWS V12.07,2013-05-19 11:31:00,
2013-05-19 08:01:00,59.6,59.6,26.86,SE,143,2.0,4.0,100,0.00,,,-99.99,VWS V12.07,2013-05-19 12:01:00,
2013-05-19 08:31:00,59.9,59.9,26.88,SE,142,1.0,3.0,100,0.00,,,-99.99,VWS V12.07,2013-05-19 12:31:00,
2013-05-19 09:01:00,60.0,60.0,26.87,SE,142,3.0,3.0,100,0.00,,,-99.99,VWS V12.07,2013-05-19 13:01:00,
2013-05-19 09:31:00,60.2,60.2,26.87,SE,142,2.0,5.0,100,0.00,,,-99.99,VWS V12.07,2013-05-19 13:31:00,
2013-05-19 10:01:00,60.5,60.5,26.87,SE,142,3.0,5.0,100,0.00,,,-99.99,VWS V12.07,2013-05-19 14:01:00,
2013-05-19 10:31:00,60.7,60.7,26.86,NE,49,2.0,2.0,100,0.00,,,-99.99,VWS V12.07,2013-05-19 14:31:00,
2013-05-19 11:01:00,61.6,61.6,26.86,ENE,65,4.0,4.0,100,0.00,,,-99.99,VWS V12.07,2013-05-19 15:01:00,
2013-05-19 11:31:00,61.9,61.9,26.86,ENE,60,2.0,7.0,100,0.00,,,-99.99,VWS V12.07,2013-05-19 15:31:00,
2013-05-19 12:01:00,62.7,62.7,26.84,East,92,7.0,11.0,100,0.00,,,-99.99,VWS V12.07,2013-05-19 16:01:00,
2013-05-19 12:31:00,62.0,62.0,26.85,NE,40,0.0,6.0,100,0.00,,,-99.99,VWS V12.07,2013-05-19 16:31:00,
2013-05-19 13:01:00,61.8,61.8,26.84,ENE,73,9.0,10.0,100,0.00,,,-99.99,VWS V12.07,2013-05-19 17:01:00,
2013-05-19 13:32:00,62.2,62.2,26.83,ENE,61,3.0,5.0,100,0.00,,,-99.99,VWS V12.07,2013-05-19 17:32:00,
2013-05-19 14:01:00,62.4,62.4,26.83,South,180,3.0,7.0,100,0.00,,,-99.99,VWS V12.07,2013-05-19 18:01:00,
2013-05-19 14:31:00,62.9,62.9,26.82,East,84,5.0,5.0,100,0.00,,,-99.99,VWS V12.07,2013-05-19 18:31:00,
2013-05-19 15:01:00,64.1,64.1,26.82,ENE,77,3.0,5.0,100,0.00,,,-99.99,VWS V12.07,2013-05-19 19:01:00,
2013-05-19 15:31:00,64.5,64.5,26.82,ENE,73,3.0,7.0,100,0.01,,,-99.99,VWS V12.07,2013-05-19 19:31:00,
2013-05-19 16:01:00,63.9,63.9,26.82,ESE,117,5.0,9.0,100,0.01,,,-99.99,VWS V12.07,2013-05-19 20:01:00,
2013-05-19 16:31:00,64.0,64.0,26.83,ESE,120,4.0,8.0,100,0.00,,,-99.99,VWS V12.07,2013-05-19 20:31:00,
2013-05-19 17:01:00,64.3,64.3,26.83,SE,139,3.0,6.0,100,0.00,,,-99.99,VWS V12.07,2013-05-19 21:01:00,
2013-05-19 17:31:00,64.3,64.3,26.82,SSE,155,3.0,6.0,100,0.00,,,-99.99,VWS V12.07,2013-05-19 21:31:00,
2013-05-19 18:01:00,63.8,63.8,26.82,ESE,121,2.0,5.0,100,0.00,,,-99.99,VWS V12.07,2013-05-19 22:01:00,
2013-05-19 18:31:00,62.7,62.7,26.81,ESE,116,2.0,5.0,100,0.00,,,-99.99,VWS V12.07,2013-05-19 22:31:00,
2013-05-19 19:01:00,62.1,62.1,26.83,ESE,112,0.0,3.0,100,0.00,,,-99.99,VWS V12.07,2013-05-19 23:01:00,
2013-05-19 19:31:00,61.6,61.6,26.83,ENE,74,0.0,1.0,100,0.00,,,-99.99,VWS V12.07,2013-05-19 23:31:00,
2013-05-19 20:01:00,61.1,61.1,26.84,ENE,73,0.0,2.0,100,0.00,,,-99.99,VWS V12.07,2013-05-20 00:01:00,
2013-05-19 20:31:00,60.8,60.8,26.85,ENE,73,0.0,0.0,100,0.00,,,-99.99,VWS V12.07,2013-05-20 00:31:00,
2013-05-19 21:01:00,59.7,59.7,26.84,ENE,71,1.0,2.0,100,0.00,,,-99.99,VWS V12.07,2013-05-20 01:01:00,
2013-05-19 21:31:00,59.0,59.0,26.85,ENE,71,0.0,0.0,100,0.00,,,-99.99,VWS V12.07,2013-05-20 01:31:00,
2013-05-19 22:01:00,58.7,58.7,26.85,ENE,71,0.0,0.0,100,0.00,,,-99.99,VWS V12.07,2013-05-20 02:01:00,
2013-05-19 22:31:00,59.6,59.6,26.85,ENE,71,0.0,0.0,100,0.00,,,-99.99,VWS V12.07,2013-05-20 02:31:00,
2013-05-19 23:01:00,59.1,59.1,26.85,ESE,116,0.0,0.0,100,0.00,,,-99.99,VWS V12.07,2013-05-20 03:01:00,
2013-05-19 23:31:00,58.9,58.9,26.85,ESE,105,0.0,0.0,100,0.00,,,-99.99,VWS V12.07,2013-05-20 03:31:00,